AirNav   Air Wisconsin pilot careers
 
 999 users online  

VT40 Wenlock Crossing Heliport
Ferdinand, Vermont, USA

GOING TO FERDINAND?


FAA INFORMATION EFFECTIVE 15 AUGUST 2019

Location

FAA Identifier: VT40
Lat/Long: 44-46-37.1770N 071-45-05.3330W
44-46.619617N 071-45.088883W
44.7769936,-71.7514814
(estimated)
Elevation: 1157 ft. / 353 m (estimated)
Variation: 17W (1985)
From city: 6 miles SE of FERDINAND, VT
(TO ISLAND POND VT.)
Time zone: UTC -4 (UTC -5 during Standard Time)
Zip code: 05846

Heliport Operations

Heliport use: Private use. Permission required prior to landing
Activation date: 07/1990
Control tower: no
ARTCC: BOSTON CENTER
FSS: BURLINGTON FLIGHT SERVICE STATION
Attendance: UNATNDD
Wind indicator: yes
Segmented circle: no

Heliport Communications

WX AWOS-3 at CDA (17 nm SW): 119.275 (802-626-4532)

Nearby radio navigation aids

VOR radial/distance  VOR name  Freq  Var
BMLr307/25.6BERLIN VOR/DME110.4017W
YSCr194/32.4SHERBROOKE VOR/DME113.2017W

 
NDB name  Hdg/Dist  Freq  Var  ID
MAHN011/25.038617WGMA --. -- .-

Heliport Services

Runway Information

Helipad H1

Dimensions: 195 x 150 ft. / 59 x 46 m
Surface: gravel
Traffic pattern: leftleft

Heliport Ownership and Management from official FAA records

Ownership: Privately-owned
Owner: VERMONT ELECTRIC PWR CO INC
366 PINNACLE RIDGE RD.
RUTLAND, VT 05602-0548
Phone 802-770-6257
Manager: JEFFERY DISORDA
366 PINNACLE RIDGE
RUTLAND, VT 05751-0548
Phone 802-770-6240

Additional Remarks

FOR CD CTC BOSTON ARTCC AT 603-879-6859.

Instrument Procedures

There are no published instrument procedures at VT40.

Some nearby airports with instrument procedures:

KCDA - Caledonia County Airport (17 nm SW)
KEFK - Northeast Kingdom International Airport (21 nm W)
KHIE - Mount Washington Regional Airport (26 nm S)
KBML - Berlin Regional Airport (27 nm SE)
KMVL - Morrisville-Stowe State Airport (40 nm W)
 
Loc | Ops | Rwys | IFR | FBO | Links
Com | Nav | Svcs | Stats | Notes
Area around VT40 (Wenlock Crossing Heliport)
 
Road maps at: MapQuest Bing Google
 
Aerial photo
No photo
 
Sectional chart

 
Airport distance calculator
Flying to Wenlock Crossing Heliport? Find the distance to fly.

From to VT40

Sunrise and sunset
Times for 24-Aug-2019
 Local
(UTC-4)
 Zulu
(UTC)
Morning civil twilight05:3009:30
Sunrise06:0110:01
Sunset19:3823:38
Evening civil twilight20:0900:09

Current date and time
Zulu (UTC)  24-Aug-2019 14:47:20
Local (UTC-4)  24-Aug-2019 10:47:20
 
METAR
KCDA 
17nm SW 
241436Z AUTO 33006KT 10SM OVC018 14/11 A3026 RMK AO2 T01420105
KEFK 
21nm NW 
241436Z AUTO 00000KT 7SM BKN013 OVC021 14/12 A3025 RMK AO2 T01410124
K1V4 
24nm SW 
241354Z AUTO 13/11 A3023 RMK AO1 SLP235 T01330106
KHIE 
26nm S 
241352Z AUTO 00000KT 10SM OVC016 13/11 A3024 RMK AO2 SLP243 T01330106
TAF
KHIE 
26nm S 
241342Z 2414/2512 00000KT P6SM OVC021 FM241600 36004KT P6SM BKN035 FM251000 00000KT 1/4SM FG VV001
NOTAMs
Click for the latest NOTAMs
NOTAMs are issued by the DoD/FAA and will open in a separate window not controlled by AirNav.

 

 
 

Would you like to see your business listed on this page?

 If your business provides an interesting product or service to pilots, flight crews, aircraft, or users of the Wenlock Crossing Heliport, you should consider listing it here.  To start the listing process, click on the button below
 
Add a business
 

Other Pages about Wenlock Crossing Heliport

Update a link
 
Copyright © AirNav, LLC. All rights reserved. Privacy Policy  Contact